sensor_id;sensor_type;location;lat;lon;timestamp;P1;durP1;ratioP1;P2;durP2;ratioP2
69126;SDS011;56688;50.234;19.292;2023-04-21T00:00:49;27.90;;;14.40;;
69126;SDS011;56688;50.234;19.292;2023-04-21T00:03:17;27.40;;;13.20;;
69126;SDS011;56688;50.234;19.292;2023-04-21T00:05:46;27.60;;;13.50;;
69126;SDS011;56688;50.234;19.292;2023-04-21T00:08:14;27.70;;;13.00;;
69126;SDS011;56688;50.234;19.292;2023-04-21T00:10:42;26.50;;;13.30;;
69126;SDS011;56688;50.234;19.292;2023-04-21T00:13:09;27.10;;;13.20;;
69126;SDS011;56688;50.234;19.292;2023-04-21T00:15:36;28.40;;;13.60;;
69126;SDS011;56688;50.234;19.292;2023-04-21T00:18:03;24.50;;;13.00;;
69126;SDS011;56688;50.234;19.292;2023-04-21T00:20:30;28.70;;;13.20;;
69126;SDS011;56688;50.234;19.292;2023-04-21T00:22:58;27.50;;;13.20;;
69126;SDS011;56688;50.234;19.292;2023-04-21T00:25:25;26.50;;;13.50;;
69126;SDS011;56688;50.234;19.292;2023-04-21T13:52:00;6.00;;;2.90;;
69126;SDS011;56688;50.234;19.292;2023-04-21T13:54:27;3.50;;;2.60;;
69126;SDS011;56688;50.234;19.292;2023-04-21T13:56:54;4.80;;;2.50;;
69126;SDS011;56688;50.234;19.292;2023-04-21T13:59:22;2.80;;;2.50;;
69126;SDS011;56688;50.234;19.292;2023-04-21T14:01:49;4.00;;;2.50;;
69126;SDS011;56688;50.234;19.292;2023-04-21T14:04:16;3.60;;;2.60;;
69126;SDS011;56688;50.234;19.292;2023-04-21T14:06:43;3.90;;;2.50;;
69126;SDS011;56688;50.234;19.292;2023-04-21T14:09:09;4.00;;;2.80;;
69126;SDS011;56688;50.234;19.292;2023-04-21T14:11:37;5.40;;;2.70;;
69126;SDS011;56688;50.234;19.292;2023-04-21T14:14:04;4.70;;;2.60;;
69126;SDS011;56688;50.234;19.292;2023-04-21T14:16:35;3.60;;;2.80;;
69126;SDS011;56688;50.234;19.292;2023-04-21T14:19:03;4.00;;;2.50;;
69126;SDS011;56688;50.234;19.292;2023-04-21T14:21:30;4.00;;;2.80;;
69126;SDS011;56688;50.234;19.292;2023-04-21T14:23:58;4.50;;;2.60;;
69126;SDS011;56688;50.234;19.292;2023-04-21T14:26:25;4.70;;;2.80;;
69126;SDS011;56688;50.234;19.292;2023-04-21T14:28:51;3.10;;;2.60;;
69126;SDS011;56688;50.234;19.292;2023-04-21T14:31:18;4.40;;;2.70;;
69126;SDS011;56688;50.234;19.292;2023-04-21T14:33:47;6.10;;;2.30;;
69126;SDS011;56688;50.234;19.292;2023-04-21T14:36:14;4.80;;;2.40;;
69126;SDS011;56688;50.234;19.292;2023-04-21T14:38:41;6.50;;;3.00;;
69126;SDS011;56688;50.234;19.292;2023-04-21T14:41:08;4.60;;;2.60;;
69126;SDS011;56688;50.234;19.292;2023-04-21T14:43:35;7.20;;;2.80;;
69126;SDS011;56688;50.234;19.292;2023-04-21T14:46:02;5.10;;;2.30;;
69126;SDS011;56688;50.234;19.292;2023-04-21T14:48:29;5.80;;;2.70;;
69126;SDS011;56688;50.234;19.292;2023-04-21T14:50:57;3.60;;;2.50;;
69126;SDS011;56688;50.234;19.292;2023-04-21T14:53:24;3.50;;;2.70;;
69126;SDS011;56688;50.234;19.292;2023-04-21T14:55:51;4.20;;;2.80;;
69126;SDS011;56688;50.234;19.292;2023-04-21T14:58:20;5.80;;;2.80;;
69126;SDS011;56688;50.234;19.292;2023-04-21T15:00:47;5.70;;;3.00;;
69126;SDS011;56688;50.234;19.292;2023-04-21T15:03:13;5.60;;;2.80;;
69126;SDS011;56688;50.234;19.292;2023-04-21T15:05:41;2.90;;;2.60;;
69126;SDS011;56688;50.234;19.292;2023-04-21T15:08:08;4.50;;;3.00;;
69126;SDS011;56688;50.234;19.292;2023-04-21T15:10:35;4.10;;;2.90;;
69126;SDS011;56688;50.234;19.292;2023-04-21T15:13:02;4.50;;;2.90;;
69126;SDS011;56688;50.234;19.292;2023-04-21T15:15:29;5.40;;;2.80;;
69126;SDS011;56688;50.234;19.292;2023-04-21T15:17:55;3.50;;;2.70;;
69126;SDS011;56688;50.234;19.292;2023-04-21T15:20:22;3.40;;;2.90;;
69126;SDS011;56688;50.234;19.292;2023-04-21T15:23:10;6.20;;;2.60;;
69126;SDS011;56688;50.234;19.292;2023-04-21T15:25:37;7.10;;;2.80;;
69126;SDS011;56688;50.234;19.292;2023-04-21T15:28:05;4.40;;;2.60;;
69126;SDS011;56688;50.234;19.292;2023-04-21T15:30:34;2.80;;;2.50;;
69126;SDS011;56688;50.234;19.292;2023-04-21T15:33:01;4.40;;;2.80;;
69126;SDS011;56688;50.234;19.292;2023-04-21T15:35:28;4.20;;;3.00;;
69126;SDS011;56688;50.234;19.292;2023-04-21T15:37:55;4.90;;;3.00;;
69126;SDS011;56688;50.234;19.292;2023-04-21T15:40:21;5.10;;;3.40;;
69126;SDS011;56688;50.234;19.292;2023-04-21T15:42:48;5.10;;;3.00;;
69126;SDS011;56688;50.234;19.292;2023-04-21T15:45:15;3.80;;;2.70;;
69126;SDS011;56688;50.234;19.292;2023-04-21T15:47:43;3.90;;;3.00;;
69126;SDS011;56688;50.234;19.292;2023-04-21T15:50:11;5.20;;;3.10;;
69126;SDS011;56688;50.234;19.292;2023-04-21T15:52:38;5.80;;;3.30;;
69126;SDS011;56688;50.234;19.292;2023-04-21T15:55:10;6.00;;;2.90;;
69126;SDS011;56688;50.234;19.292;2023-04-21T15:57:37;3.60;;;2.70;;
69126;SDS011;56688;50.234;19.292;2023-04-21T16:00:04;3.90;;;2.70;;
69126;SDS011;56688;50.234;19.292;2023-04-21T16:02:32;5.10;;;3.50;;
69126;SDS011;56688;50.234;19.292;2023-04-21T16:05:00;5.70;;;2.40;;
69126;SDS011;56688;50.234;19.292;2023-04-21T16:07:27;4.60;;;3.00;;
69126;SDS011;56688;50.234;19.292;2023-04-21T16:09:54;3.50;;;2.70;;
69126;SDS011;56688;50.234;19.292;2023-04-21T16:12:21;3.70;;;2.40;;
69126;SDS011;56688;50.234;19.292;2023-04-21T16:14:48;3.80;;;2.40;;
69126;SDS011;56688;50.234;19.292;2023-04-21T16:17:24;3.80;;;2.60;;
69126;SDS011;56688;50.234;19.292;2023-04-21T16:19:53;3.70;;;2.60;;
69126;SDS011;56688;50.234;19.292;2023-04-21T16:22:20;5.70;;;3.00;;
69126;SDS011;56688;50.234;19.292;2023-04-21T16:24:47;6.80;;;2.60;;
69126;SDS011;56688;50.234;19.292;2023-04-21T16:27:15;4.00;;;2.60;;
69126;SDS011;56688;50.234;19.292;2023-04-21T16:29:42;5.00;;;3.00;;
69126;SDS011;56688;50.234;19.292;2023-04-21T16:32:08;4.40;;;2.70;;
69126;SDS011;56688;50.234;19.292;2023-04-21T16:34:36;3.60;;;2.60;;
69126;SDS011;56688;50.234;19.292;2023-04-21T16:37:03;4.60;;;2.70;;
69126;SDS011;56688;50.234;19.292;2023-04-21T16:39:30;3.20;;;2.60;;
69126;SDS011;56688;50.234;19.292;2023-04-21T16:41:57;7.10;;;3.00;;
69126;SDS011;56688;50.234;19.292;2023-04-21T16:44:23;4.10;;;2.80;;
69126;SDS011;56688;50.234;19.292;2023-04-21T16:46:50;4.10;;;2.80;;
69126;SDS011;56688;50.234;19.292;2023-04-21T16:49:17;7.20;;;3.40;;
69126;SDS011;56688;50.234;19.292;2023-04-21T16:51:44;6.30;;;2.90;;
69126;SDS011;56688;50.234;19.292;2023-04-21T16:54:11;5.40;;;2.40;;
69126;SDS011;56688;50.234;19.292;2023-04-21T16:56:38;6.10;;;2.70;;
69126;SDS011;56688;50.234;19.292;2023-04-21T16:59:05;3.40;;;2.40;;
69126;SDS011;56688;50.234;19.292;2023-04-21T17:01:33;4.20;;;2.60;;
69126;SDS011;56688;50.234;19.292;2023-04-21T17:04:00;4.50;;;2.40;;
69126;SDS011;56688;50.234;19.292;2023-04-21T17:06:27;3.80;;;2.50;;
69126;SDS011;56688;50.234;19.292;2023-04-21T17:08:54;4.60;;;2.80;;
69126;SDS011;56688;50.234;19.292;2023-04-21T17:11:25;5.40;;;2.40;;
69126;SDS011;56688;50.234;19.292;2023-04-21T17:13:53;3.90;;;2.60;;
69126;SDS011;56688;50.234;19.292;2023-04-21T17:16:20;5.20;;;2.30;;
69126;SDS011;56688;50.234;19.292;2023-04-21T17:18:47;5.00;;;2.80;;
69126;SDS011;56688;50.234;19.292;2023-04-21T17:21:14;4.60;;;2.90;;
69126;SDS011;56688;50.234;19.292;2023-04-21T17:23:41;5.30;;;3.10;;
69126;SDS011;56688;50.234;19.292;2023-04-21T17:26:08;5.60;;;3.90;;
69126;SDS011;56688;50.234;19.292;2023-04-21T17:28:38;7.20;;;3.90;;
69126;SDS011;56688;50.234;19.292;2023-04-21T17:31:05;7.90;;;4.00;;
69126;SDS011;56688;50.234;19.292;2023-04-21T17:33:41;5.80;;;3.40;;
69126;SDS011;56688;50.234;19.292;2023-04-21T17:36:10;5.10;;;3.20;;
69126;SDS011;56688;50.234;19.292;2023-04-21T17:38:37;5.70;;;3.20;;
69126;SDS011;56688;50.234;19.292;2023-04-21T17:41:04;5.00;;;3.20;;
69126;SDS011;56688;50.234;19.292;2023-04-21T17:43:33;7.70;;;4.30;;
69126;SDS011;56688;50.234;19.292;2023-04-21T17:45:59;5.50;;;3.30;;
69126;SDS011;56688;50.234;19.292;2023-04-21T17:48:26;8.10;;;3.90;;
69126;SDS011;56688;50.234;19.292;2023-04-21T17:50:53;6.30;;;3.70;;
69126;SDS011;56688;50.234;19.292;2023-04-21T17:53:20;5.10;;;3.60;;
69126;SDS011;56688;50.234;19.292;2023-04-21T17:55:47;4.70;;;2.90;;
69126;SDS011;56688;50.234;19.292;2023-04-21T17:58:14;5.80;;;3.30;;
69126;SDS011;56688;50.234;19.292;2023-04-21T18:00:41;6.90;;;3.80;;
69126;SDS011;56688;50.234;19.292;2023-04-21T18:03:08;4.70;;;3.50;;
69126;SDS011;56688;50.234;19.292;2023-04-21T18:05:35;7.50;;;3.90;;
69126;SDS011;56688;50.234;19.292;2023-04-21T18:08:02;14.70;;;4.20;;
69126;SDS011;56688;50.234;19.292;2023-04-21T18:10:29;8.60;;;3.60;;
69126;SDS011;56688;50.234;19.292;2023-04-21T18:12:56;9.10;;;3.60;;
69126;SDS011;56688;50.234;19.292;2023-04-21T18:15:23;8.70;;;3.40;;
69126;SDS011;56688;50.234;19.292;2023-04-21T18:17:50;4.50;;;3.30;;
69126;SDS011;56688;50.234;19.292;2023-04-21T18:20:18;7.40;;;3.50;;
69126;SDS011;56688;50.234;19.292;2023-04-21T18:22:46;8.60;;;3.50;;
69126;SDS011;56688;50.234;19.292;2023-04-21T18:25:15;8.30;;;3.30;;
69126;SDS011;56688;50.234;19.292;2023-04-21T18:27:49;8.10;;;3.30;;
69126;SDS011;56688;50.234;19.292;2023-04-21T18:30:16;5.90;;;3.30;;
69126;SDS011;56688;50.234;19.292;2023-04-21T18:32:43;10.90;;;3.30;;
69126;SDS011;56688;50.234;19.292;2023-04-21T18:35:10;7.30;;;3.60;;
69126;SDS011;56688;50.234;19.292;2023-04-21T18:37:37;6.10;;;3.30;;
69126;SDS011;56688;50.234;19.292;2023-04-21T18:40:04;7.80;;;3.30;;
69126;SDS011;56688;50.234;19.292;2023-04-21T18:42:31;6.80;;;3.80;;
69126;SDS011;56688;50.234;19.292;2023-04-21T18:44:58;8.80;;;4.10;;
69126;SDS011;56688;50.234;19.292;2023-04-21T18:47:41;6.80;;;3.40;;
69126;SDS011;56688;50.234;19.292;2023-04-21T18:50:08;7.30;;;3.30;;
69126;SDS011;56688;50.234;19.292;2023-04-21T18:52:35;7.40;;;3.40;;
69126;SDS011;56688;50.234;19.292;2023-04-21T18:55:02;6.50;;;3.60;;
69126;SDS011;56688;50.234;19.292;2023-04-21T18:57:29;6.40;;;3.60;;
69126;SDS011;56688;50.234;19.292;2023-04-21T18:59:56;10.20;;;3.60;;
69126;SDS011;56688;50.234;19.292;2023-04-21T19:02:22;5.60;;;3.20;;
69126;SDS011;56688;50.234;19.292;2023-04-21T19:04:50;6.00;;;3.40;;
69126;SDS011;56688;50.234;19.292;2023-04-21T19:07:17;6.60;;;3.30;;
69126;SDS011;56688;50.234;19.292;2023-04-21T19:09:44;5.00;;;3.50;;
69126;SDS011;56688;50.234;19.292;2023-04-21T19:12:11;6.20;;;3.60;;
69126;SDS011;56688;50.234;19.292;2023-04-21T19:17:22;5.80;;;3.40;;
69126;SDS011;56688;50.234;19.292;2023-04-21T19:19:49;7.50;;;3.60;;
69126;SDS011;56688;50.234;19.292;2023-04-21T19:22:16;4.60;;;3.30;;
69126;SDS011;56688;50.234;19.292;2023-04-21T19:24:45;5.20;;;3.70;;
69126;SDS011;56688;50.234;19.292;2023-04-21T19:27:12;6.00;;;3.50;;
69126;SDS011;56688;50.234;19.292;2023-04-21T19:29:40;4.50;;;3.50;;
69126;SDS011;56688;50.234;19.292;2023-04-21T19:32:06;5.20;;;3.70;;
69126;SDS011;56688;50.234;19.292;2023-04-21T19:34:49;5.50;;;3.70;;
69126;SDS011;56688;50.234;19.292;2023-04-21T19:37:16;6.40;;;4.20;;
69126;SDS011;56688;50.234;19.292;2023-04-21T19:39:43;7.70;;;4.60;;
69126;SDS011;56688;50.234;19.292;2023-04-21T19:42:11;6.60;;;4.50;;
69126;SDS011;56688;50.234;19.292;2023-04-21T19:44:38;6.20;;;4.00;;
69126;SDS011;56688;50.234;19.292;2023-04-21T19:47:05;6.30;;;4.20;;
69126;SDS011;56688;50.234;19.292;2023-04-21T19:49:32;7.60;;;4.20;;
69126;SDS011;56688;50.234;19.292;2023-04-21T19:51:59;7.30;;;4.00;;
69126;SDS011;56688;50.234;19.292;2023-04-21T19:54:26;8.80;;;5.10;;
69126;SDS011;56688;50.234;19.292;2023-04-21T19:56:53;9.40;;;6.20;;
69126;SDS011;56688;50.234;19.292;2023-04-21T19:59:21;11.60;;;6.70;;
69126;SDS011;56688;50.234;19.292;2023-04-21T20:01:47;9.10;;;6.30;;
69126;SDS011;56688;50.234;19.292;2023-04-21T20:04:14;12.10;;;6.70;;
69126;SDS011;56688;50.234;19.292;2023-04-21T20:06:42;11.80;;;7.20;;
69126;SDS011;56688;50.234;19.292;2023-04-21T20:09:09;11.00;;;7.20;;
69126;SDS011;56688;50.234;19.292;2023-04-21T20:11:37;12.60;;;7.40;;
69126;SDS011;56688;50.234;19.292;2023-04-21T20:14:03;13.30;;;8.20;;
69126;SDS011;56688;50.234;19.292;2023-04-21T20:16:30;14.20;;;8.70;;
69126;SDS011;56688;50.234;19.292;2023-04-21T20:18:58;15.50;;;8.50;;
69126;SDS011;56688;50.234;19.292;2023-04-21T20:21:25;17.20;;;9.60;;
69126;SDS011;56688;50.234;19.292;2023-04-21T20:23:52;14.00;;;8.30;;
69126;SDS011;56688;50.234;19.292;2023-04-21T20:26:19;16.40;;;9.40;;
69126;SDS011;56688;50.234;19.292;2023-04-21T20:28:46;19.70;;;10.40;;
69126;SDS011;56688;50.234;19.292;2023-04-21T20:31:13;17.00;;;10.10;;
69126;SDS011;56688;50.234;19.292;2023-04-21T20:33:40;15.70;;;9.60;;
69126;SDS011;56688;50.234;19.292;2023-04-21T20:36:07;16.80;;;10.40;;
69126;SDS011;56688;50.234;19.292;2023-04-21T20:38:34;20.30;;;10.80;;
69126;SDS011;56688;50.234;19.292;2023-04-21T20:41:01;20.00;;;11.20;;
69126;SDS011;56688;50.234;19.292;2023-04-21T20:43:28;21.40;;;12.20;;
69126;SDS011;56688;50.234;19.292;2023-04-21T20:45:59;20.30;;;11.80;;
69126;SDS011;56688;50.234;19.292;2023-04-21T20:48:27;25.40;;;13.20;;
69126;SDS011;56688;50.234;19.292;2023-04-21T20:50:54;22.50;;;12.80;;
69126;SDS011;56688;50.234;19.292;2023-04-21T20:53:21;24.30;;;12.50;;
69126;SDS011;56688;50.234;19.292;2023-04-21T20:55:48;23.30;;;12.50;;
69126;SDS011;56688;50.234;19.292;2023-04-21T20:58:15;23.20;;;12.70;;
69126;SDS011;56688;50.234;19.292;2023-04-21T21:00:42;26.40;;;13.40;;
69126;SDS011;56688;50.234;19.292;2023-04-21T21:03:09;24.40;;;13.30;;
69126;SDS011;56688;50.234;19.292;2023-04-21T21:05:37;21.90;;;13.70;;
69126;SDS011;56688;50.234;19.292;2023-04-21T21:08:06;31.30;;;13.90;;
69126;SDS011;56688;50.234;19.292;2023-04-21T21:10:34;24.30;;;13.40;;
69126;SDS011;56688;50.234;19.292;2023-04-21T21:13:01;25.80;;;13.30;;
69126;SDS011;56688;50.234;19.292;2023-04-21T21:15:28;23.90;;;13.40;;
69126;SDS011;56688;50.234;19.292;2023-04-21T21:17:56;26.80;;;14.00;;
69126;SDS011;56688;50.234;19.292;2023-04-21T21:20:23;25.10;;;14.40;;
69126;SDS011;56688;50.234;19.292;2023-04-21T21:22:50;28.90;;;14.80;;
69126;SDS011;56688;50.234;19.292;2023-04-21T21:25:17;29.90;;;14.60;;
69126;SDS011;56688;50.234;19.292;2023-04-21T21:27:44;30.60;;;14.90;;
69126;SDS011;56688;50.234;19.292;2023-04-21T21:30:11;32.70;;;15.80;;
69126;SDS011;56688;50.234;19.292;2023-04-21T21:32:38;27.30;;;15.30;;
69126;SDS011;56688;50.234;19.292;2023-04-21T21:35:06;28.20;;;15.40;;
69126;SDS011;56688;50.234;19.292;2023-04-21T21:37:35;35.90;;;16.70;;
69126;SDS011;56688;50.234;19.292;2023-04-21T21:40:02;35.60;;;17.30;;
69126;SDS011;56688;50.234;19.292;2023-04-21T21:42:30;40.80;;;16.90;;
69126;SDS011;56688;50.234;19.292;2023-04-21T21:44:57;37.10;;;18.00;;
69126;SDS011;56688;50.234;19.292;2023-04-21T21:47:23;37.30;;;18.40;;
69126;SDS011;56688;50.234;19.292;2023-04-21T21:49:51;40.70;;;18.10;;
69126;SDS011;56688;50.234;19.292;2023-04-21T21:52:20;35.50;;;16.90;;
69126;SDS011;56688;50.234;19.292;2023-04-21T21:54:47;28.60;;;15.60;;
69126;SDS011;56688;50.234;19.292;2023-04-21T21:57:14;35.10;;;16.60;;
69126;SDS011;56688;50.234;19.292;2023-04-21T21:59:41;31.00;;;15.10;;
69126;SDS011;56688;50.234;19.292;2023-04-21T22:02:08;30.50;;;16.40;;
69126;SDS011;56688;50.234;19.292;2023-04-21T22:04:35;37.00;;;17.00;;
69126;SDS011;56688;50.234;19.292;2023-04-21T22:07:03;31.40;;;15.70;;
69126;SDS011;56688;50.234;19.292;2023-04-21T22:09:30;32.30;;;16.20;;
69126;SDS011;56688;50.234;19.292;2023-04-21T22:11:57;35.10;;;16.30;;
69126;SDS011;56688;50.234;19.292;2023-04-21T22:14:24;30.20;;;15.50;;
69126;SDS011;56688;50.234;19.292;2023-04-21T22:16:51;32.70;;;16.10;;
69126;SDS011;56688;50.234;19.292;2023-04-21T22:19:19;34.20;;;16.30;;
69126;SDS011;56688;50.234;19.292;2023-04-21T22:21:46;34.60;;;15.00;;
69126;SDS011;56688;50.234;19.292;2023-04-21T22:24:13;35.40;;;15.60;;
69126;SDS011;56688;50.234;19.292;2023-04-21T22:26:41;31.70;;;15.50;;
69126;SDS011;56688;50.234;19.292;2023-04-21T22:29:08;34.20;;;16.50;;
69126;SDS011;56688;50.234;19.292;2023-04-21T22:31:36;34.60;;;16.00;;
69126;SDS011;56688;50.234;19.292;2023-04-21T22:34:03;37.20;;;16.20;;
69126;SDS011;56688;50.234;19.292;2023-04-21T22:36:30;36.80;;;16.20;;
69126;SDS011;56688;50.234;19.292;2023-04-21T22:38:58;42.40;;;16.80;;
69126;SDS011;56688;50.234;19.292;2023-04-21T22:41:25;34.30;;;16.30;;
69126;SDS011;56688;50.234;19.292;2023-04-21T22:43:53;42.30;;;17.20;;
69126;SDS011;56688;50.234;19.292;2023-04-21T22:46:19;46.20;;;17.30;;
69126;SDS011;56688;50.234;19.292;2023-04-21T22:48:46;50.20;;;18.20;;
69126;SDS011;56688;50.234;19.292;2023-04-21T22:51:14;41.70;;;18.20;;
69126;SDS011;56688;50.234;19.292;2023-04-21T22:53:40;45.40;;;18.80;;
69126;SDS011;56688;50.234;19.292;2023-04-21T22:56:07;50.30;;;19.60;;
69126;SDS011;56688;50.234;19.292;2023-04-21T22:58:34;47.90;;;20.00;;
69126;SDS011;56688;50.234;19.292;2023-04-21T23:01:01;44.80;;;19.50;;
69126;SDS011;56688;50.234;19.292;2023-04-21T23:03:28;50.00;;;18.90;;
69126;SDS011;56688;50.234;19.292;2023-04-21T23:05:56;49.90;;;18.70;;
69126;SDS011;56688;50.234;19.292;2023-04-21T23:08:24;47.20;;;18.90;;
69126;SDS011;56688;50.234;19.292;2023-04-21T23:10:51;50.90;;;18.90;;
69126;SDS011;56688;50.234;19.292;2023-04-21T23:13:18;52.90;;;18.80;;
69126;SDS011;56688;50.234;19.292;2023-04-21T23:15:45;52.20;;;18.80;;
69126;SDS011;56688;50.234;19.292;2023-04-21T23:18:11;49.00;;;18.30;;
69126;SDS011;56688;50.234;19.292;2023-04-21T23:20:38;46.80;;;19.00;;
69126;SDS011;56688;50.234;19.292;2023-04-21T23:23:05;45.80;;;18.30;;
69126;SDS011;56688;50.234;19.292;2023-04-21T23:25:32;48.50;;;18.10;;
69126;SDS011;56688;50.234;19.292;2023-04-21T23:27:59;51.60;;;18.40;;
69126;SDS011;56688;50.234;19.292;2023-04-21T23:30:26;58.00;;;18.60;;
69126;SDS011;56688;50.234;19.292;2023-04-21T23:32:53;47.30;;;17.60;;
69126;SDS011;56688;50.234;19.292;2023-04-21T23:35:20;43.70;;;18.10;;
69126;SDS011;56688;50.234;19.292;2023-04-21T23:37:46;51.40;;;17.60;;
69126;SDS011;56688;50.234;19.292;2023-04-21T23:40:14;52.40;;;18.40;;
69126;SDS011;56688;50.234;19.292;2023-04-21T23:42:41;48.20;;;17.70;;
69126;SDS011;56688;50.234;19.292;2023-04-21T23:45:13;53.30;;;19.50;;
69126;SDS011;56688;50.234;19.292;2023-04-21T23:47:40;60.30;;;20.50;;
69126;SDS011;56688;50.234;19.292;2023-04-21T23:50:07;72.60;;;24.10;;
69126;SDS011;56688;50.234;19.292;2023-04-21T23:52:34;68.20;;;22.80;;
69126;SDS011;56688;50.234;19.292;2023-04-21T23:55:01;66.20;;;22.40;;
69126;SDS011;56688;50.234;19.292;2023-04-21T23:57:28;48.40;;;18.90;;
69126;SDS011;56688;50.234;19.292;2023-04-21T23:59:55;45.20;;;17.50;;
